createdAt,value
2017-11-03T00:02:18.030Z,43.97
2017-11-03T00:04:45.481Z,36.37
2017-11-03T00:07:12.969Z,34.13
2017-11-03T00:09:41.189Z,32.60
2017-11-03T00:12:08.676Z,31.87
2017-11-03T00:14:36.153Z,34.37
2017-11-03T00:17:03.636Z,30.13
2017-11-03T00:19:31.117Z,32.70
2017-11-03T00:21:58.608Z,36.57
2017-11-03T00:24:26.079Z,29.90
2017-11-03T00:26:53.537Z,31.20
2017-11-03T00:29:21.067Z,30.27
2017-11-03T00:31:48.530Z,31.30
2017-11-03T00:34:16.004Z,32.13
2017-11-03T00:36:43.479Z,34.47
2017-11-03T00:39:11.724Z,34.23
2017-11-03T00:41:39.207Z,32.10
2017-11-03T00:44:06.663Z,35.70
2017-11-03T00:46:34.146Z,36.53
2017-11-03T00:49:01.601Z,31.90
2017-11-03T00:51:29.082Z,42.03
2017-11-03T00:53:56.579Z,34.90
2017-11-03T00:56:24.033Z,29.60
2017-11-03T00:58:51.537Z,33.77
2017-11-03T01:01:19.049Z,47.97
2017-11-03T01:03:46.530Z,33.27
2017-11-03T01:06:14.938Z,28.60
2017-11-03T01:08:42.431Z,31.30
2017-11-03T01:11:09.910Z,49.27
2017-11-03T01:13:37.377Z,68.30
2017-11-03T01:16:04.860Z,64.00
2017-11-03T01:18:32.323Z,70.77
2017-11-03T01:20:59.796Z,116.13
2017-11-03T01:23:27.277Z,77.97
2017-11-03T01:25:55.071Z,62.07
2017-11-03T01:28:22.516Z,70.93
2017-11-03T01:30:50.007Z,51.97
2017-11-03T01:33:18.258Z,68.00
2017-11-03T01:35:46.510Z,91.53
2017-11-03T01:38:14.026Z,67.50
2017-11-03T01:40:41.503Z,80.53
2017-11-03T01:43:08.984Z,54.30
2017-11-03T01:45:36.532Z,85.77
2017-11-03T01:48:03.999Z,74.37
2017-11-03T01:50:31.582Z,141.27
2017-11-03T01:52:59.824Z,83.03
2017-11-03T01:55:27.286Z,74.57
2017-11-03T01:57:54.766Z,90.63
2017-11-03T02:00:22.298Z,61.30
2017-11-03T02:02:49.788Z,84.47
2017-11-03T02:05:17.237Z,86.97
2017-11-03T02:07:44.730Z,77.40
2017-11-03T02:10:12.201Z,110.30
2017-11-03T02:12:39.685Z,138.77
2017-11-03T02:15:07.140Z,151.77
2017-11-03T02:17:35.037Z,161.27
2017-11-03T02:20:02.529Z,124.23
2017-11-03T02:22:30.034Z,141.70
2017-11-03T02:24:57.501Z,129.63
2017-11-03T02:27:24.967Z,97.50
2017-11-03T02:29:52.527Z,95.73
2017-11-03T02:32:19.982Z,100.50
2017-11-03T02:34:47.468Z,79.60
2017-11-03T02:37:15.714Z,102.67
2017-11-03T02:39:43.153Z,95.33
2017-11-03T02:42:10.627Z,129.07
2017-11-03T02:44:38.194Z,89.37
2017-11-03T02:47:05.681Z,81.13
2017-11-03T02:49:33.139Z,78.97
2017-11-03T02:52:00.642Z,130.70
2017-11-03T02:54:28.110Z,104.83
2017-11-03T02:56:55.571Z,126.57
2017-11-03T02:59:23.103Z,120.83
2017-11-03T03:01:50.564Z,115.27
2017-11-03T03:04:18.055Z,133.43
2017-11-03T03:06:46.428Z,150.07
2017-11-03T03:09:13.909Z,183.43
2017-11-03T03:11:41.414Z,153.90
2017-11-03T03:14:08.875Z,172.97
2017-11-03T03:16:36.353Z,133.17
2017-11-03T03:19:03.825Z,134.17
2017-11-03T03:21:32.092Z,163.80
2017-11-03T03:23:59.553Z,130.37
2017-11-03T03:26:27.105Z,225.73
2017-11-03T03:28:54.591Z,101.53
2017-11-03T03:31:22.830Z,146.57
2017-11-03T03:33:50.308Z,122.57
2017-11-03T03:36:17.782Z,97.00
2017-11-03T03:38:45.246Z,123.63
2017-11-03T03:41:12.744Z,136.70
2017-11-03T03:43:47.644Z,144.57
2017-11-03T03:46:15.097Z,169.43
2017-11-03T03:48:42.613Z,285.90
2017-11-03T03:51:10.092Z,123.07
2017-11-03T03:53:37.548Z,127.97
2017-11-03T03:56:05.784Z,87.00
2017-11-03T03:58:33.260Z,203.93
2017-11-03T04:01:00.748Z,281.73
2017-11-03T04:03:28.238Z,125.13
2017-11-03T04:05:55.706Z,135.63
2017-11-03T04:08:23.187Z,167.63
2017-11-03T04:10:50.658Z,162.37
2017-11-03T04:13:18.906Z,129.20
2017-11-03T04:15:46.380Z,120.57
2017-11-03T04:18:13.882Z,154.60
2017-11-03T04:20:41.380Z,281.67
2017-11-03T04:23:08.855Z,195.97
2017-11-03T04:25:36.329Z,124.47
2017-11-03T04:28:04.570Z,143.17
2017-11-03T04:30:32.045Z,179.63
2017-11-03T04:32:59.528Z,174.23
2017-11-03T04:35:27.053Z,79.00
2017-11-03T04:37:54.528Z,116.20
2017-11-03T04:40:22.763Z,129.07
2017-11-03T04:42:50.242Z,213.60
2017-11-03T04:45:17.696Z,111.67
2017-11-03T04:47:45.186Z,89.13
2017-11-03T04:50:12.677Z,121.47
2017-11-03T04:52:40.157Z,94.13
2017-11-03T04:55:07.618Z,76.80
2017-11-03T04:57:35.090Z,99.43
2017-11-03T05:00:02.692Z,119.40
2017-11-03T05:02:30.166Z,126.23
2017-11-03T05:04:57.634Z,99.03
2017-11-03T05:07:25.221Z,82.93
2017-11-03T05:09:53.472Z,71.20
2017-11-03T05:12:20.978Z,63.87
2017-11-03T05:14:49.216Z,81.93
2017-11-03T05:17:16.720Z,94.00
2017-11-03T05:19:44.194Z,65.13
2017-11-03T05:22:11.726Z,62.40
2017-11-03T05:24:39.920Z,79.93
2017-11-03T05:27:07.541Z,71.40
2017-11-03T05:29:35.019Z,74.87
2017-11-03T05:32:03.281Z,74.57
2017-11-03T05:34:31.551Z,83.93
2017-11-03T05:36:59.028Z,95.87
2017-11-03T05:39:27.291Z,76.90
2017-11-03T05:41:54.764Z,70.37
2017-11-03T05:44:23.029Z,73.23
2017-11-03T05:46:51.290Z,66.87
2017-11-03T05:49:18.778Z,76.27
2017-11-03T05:51:46.293Z,78.77
2017-11-03T05:54:13.774Z,66.23
2017-11-03T05:56:41.248Z,71.50
2017-11-03T05:59:08.748Z,69.30
2017-11-03T06:01:36.261Z,69.07
2017-11-03T06:04:04.534Z,71.70
2017-11-03T06:06:32.797Z,68.90
2017-11-03T06:09:01.065Z,59.47
2017-11-03T06:11:28.544Z,64.00
2017-11-03T06:13:56.054Z,62.27
2017-11-03T06:16:23.521Z,58.00
2017-11-03T06:18:51.034Z,67.73
2017-11-03T06:21:18.655Z,68.30
2017-11-03T06:23:46.130Z,68.63
2017-11-03T06:26:13.636Z,62.40
2017-11-03T06:28:41.104Z,68.40
2017-11-03T06:31:08.609Z,60.70
2017-11-03T06:33:36.875Z,73.77
2017-11-03T06:36:04.367Z,76.03
2017-11-03T06:38:31.848Z,65.97
2017-11-03T06:40:59.319Z,60.03
2017-11-03T06:43:26.809Z,64.20
2017-11-03T06:45:55.058Z,63.87
2017-11-03T06:48:22.571Z,61.50
2017-11-03T06:50:50.065Z,73.13
2017-11-03T06:53:17.536Z,60.73
2017-11-03T06:55:45.019Z,70.73
2017-11-03T06:58:13.274Z,63.93
2017-11-03T07:00:40.758Z,74.43
2017-11-03T07:03:08.267Z,74.17
2017-11-03T07:05:35.764Z,79.37
2017-11-03T07:08:03.231Z,56.80
2017-11-03T07:10:31.001Z,72.70
2017-11-03T07:12:58.456Z,67.43
2017-11-03T07:15:25.949Z,71.57
2017-11-03T07:17:53.426Z,77.47
2017-11-03T07:20:20.901Z,80.40
2017-11-03T07:22:56.873Z,79.80
2017-11-03T07:25:25.542Z,85.10
2017-11-03T07:27:54.430Z,86.43
2017-11-03T07:30:21.968Z,74.50
2017-11-03T07:32:49.420Z,85.27
2017-11-03T07:35:16.914Z,77.67
2017-11-03T07:37:44.381Z,75.87
2017-11-03T07:40:11.929Z,127.53
2017-11-03T07:42:40.306Z,134.73
2017-11-03T07:45:08.590Z,106.53
2017-11-03T07:47:36.086Z,177.00
2017-11-03T07:50:03.598Z,141.13
2017-11-03T07:52:31.873Z,170.57
2017-11-03T07:54:59.392Z,163.40
2017-11-03T07:57:27.628Z,255.73
2017-11-03T07:59:55.120Z,173.17
2017-11-03T08:02:22.860Z,112.33
2017-11-03T08:04:50.366Z,111.17
2017-11-03T08:07:17.843Z,80.83
2017-11-03T08:09:46.556Z,102.93
2017-11-03T08:12:14.047Z,94.97
2017-11-03T08:14:41.566Z,202.30
2017-11-03T08:17:09.804Z,147.30
2017-11-03T08:19:38.338Z,217.07
2017-11-03T08:22:06.392Z,219.93
2017-11-03T08:24:34.647Z,126.60
2017-11-03T08:27:02.924Z,100.33
2017-11-03T08:29:30.398Z,125.80
2017-11-03T08:31:57.908Z,81.03
2017-11-03T08:34:25.375Z,96.83
2017-11-03T08:36:52.988Z,69.80
2017-11-03T08:39:20.467Z,105.50
2017-11-03T08:41:48.172Z,132.53
2017-11-03T08:44:15.724Z,72.80
2017-11-03T08:46:43.195Z,69.77
2017-11-03T08:49:10.710Z,75.13
2017-11-03T08:51:38.215Z,49.57
2017-11-03T08:54:06.718Z,80.57
2017-11-03T08:56:34.984Z,134.60
2017-11-03T08:59:04.354Z,101.27
2017-11-03T09:01:31.892Z,92.97
2017-11-03T09:03:59.396Z,74.70
2017-11-03T09:06:27.679Z,71.70
2017-11-03T09:08:55.944Z,58.70
2017-11-03T09:11:24.532Z,58.27
2017-11-03T09:13:52.825Z,56.40
2017-11-03T09:16:20.360Z,54.50
2017-11-03T09:18:48.640Z,45.40
2017-11-03T09:21:16.905Z,63.13
2017-11-03T09:23:45.163Z,79.60
2017-11-03T09:26:12.650Z,45.53
2017-11-03T09:28:40.157Z,66.50
2017-11-03T09:31:08.342Z,102.73
2017-11-03T09:33:35.841Z,67.17
2017-11-03T09:36:04.835Z,56.77
2017-11-03T09:38:32.363Z,83.30
2017-11-03T09:40:59.844Z,59.33
2017-11-03T09:43:28.095Z,64.63
2017-11-03T09:45:55.843Z,46.63
2017-11-03T09:48:23.332Z,53.60
2017-11-03T09:50:50.826Z,66.63
2017-11-03T09:53:18.293Z,45.80
2017-11-03T09:55:45.735Z,50.03
2017-11-03T09:58:13.222Z,48.50
2017-11-03T10:00:40.697Z,39.07
2017-11-03T10:03:08.453Z,45.63
2017-11-03T10:05:35.958Z,39.50
2017-11-03T10:08:04.195Z,40.30
2017-11-03T10:10:31.733Z,40.97
2017-11-03T10:12:59.223Z,38.50
2017-11-03T10:15:26.717Z,49.47
2017-11-03T10:17:54.971Z,40.33
2017-11-03T10:20:22.525Z,37.67
2017-11-03T10:22:50.012Z,43.20
2017-11-03T10:25:17.471Z,34.70
2017-11-03T10:27:44.992Z,35.90
2017-11-03T10:30:12.454Z,33.33
2017-11-03T10:32:40.232Z,34.47
2017-11-03T10:35:07.751Z,34.73
2017-11-03T10:37:35.225Z,31.93
2017-11-03T10:40:02.712Z,35.47
2017-11-03T10:42:30.478Z,29.80
2017-11-03T10:44:58.759Z,30.77
2017-11-03T10:47:26.322Z,31.43
2017-11-03T10:49:54.152Z,33.47
2017-11-03T10:52:21.748Z,32.53
2017-11-03T10:54:49.321Z,37.20
2017-11-03T10:57:17.006Z,33.67
2017-11-03T10:59:44.571Z,30.80
2017-11-03T11:02:12.096Z,32.87
2017-11-03T11:04:40.199Z,27.37
2017-11-03T11:07:08.129Z,31.27
2017-11-03T11:09:35.823Z,31.20
2017-11-03T11:12:03.394Z,33.20
2017-11-03T11:14:31.118Z,33.50
2017-11-03T11:16:58.768Z,29.10
2017-11-03T11:19:27.030Z,31.47
2017-11-03T11:21:54.504Z,29.00
2017-11-03T11:24:22.767Z,27.83
2017-11-03T11:26:52.994Z,29.47
2017-11-03T11:29:20.510Z,28.73
2017-11-03T11:31:48.805Z,27.50
2017-11-03T11:34:16.275Z,17.63
2017-11-03T11:36:43.749Z,16.20
2017-11-03T11:39:11.216Z,12.47
2017-11-03T11:41:39.177Z,14.10
2017-11-03T11:44:06.731Z,13.03
2017-11-03T11:46:34.970Z,8.90
2017-11-03T11:49:02.454Z,16.27
2017-11-03T11:51:29.935Z,15.37
2017-11-03T11:53:57.499Z,14.63
2017-11-03T11:56:24.982Z,11.30
2017-11-03T11:58:52.808Z,12.80
2017-11-03T12:01:20.303Z,9.23
2017-11-03T12:03:47.776Z,10.33
2017-11-03T12:06:15.269Z,10.77
2017-11-03T12:08:43.563Z,7.80
2017-11-03T12:11:11.078Z,9.77
2017-11-03T12:13:38.578Z,9.57
2017-11-03T12:16:06.839Z,10.53
2017-11-03T12:18:35.114Z,7.77
2017-11-03T12:21:03.370Z,9.23
2017-11-03T12:23:30.855Z,10.93
2017-11-03T12:25:59.118Z,10.63
2017-11-03T12:28:26.678Z,7.77
2017-11-03T12:30:54.197Z,10.60
2017-11-03T12:33:22.046Z,9.13
2017-11-03T12:35:49.516Z,13.77
2017-11-03T12:38:16.977Z,10.83
2017-11-03T12:40:44.468Z,7.70
2017-11-03T12:43:11.938Z,12.23
2017-11-03T12:45:39.444Z,14.20
2017-11-03T12:48:06.919Z,9.30
2017-11-03T12:50:34.390Z,11.47
2017-11-03T12:53:01.874Z,12.17
2017-11-03T12:55:29.368Z,14.27
2017-11-03T12:57:57.692Z,14.70
2017-11-03T13:00:25.948Z,11.77
2017-11-03T13:02:53.438Z,14.70
2017-11-03T13:05:21.710Z,13.67
2017-11-03T13:07:49.958Z,15.33
2017-11-03T13:10:17.730Z,15.53
2017-11-03T13:12:45.232Z,12.20
2017-11-03T13:15:12.854Z,13.10
2017-11-03T13:17:40.392Z,14.13
2017-11-03T13:20:08.704Z,14.03
2017-11-03T13:22:37.286Z,10.63
2017-11-03T13:25:05.624Z,14.13
2017-11-03T13:27:33.146Z,13.27
2017-11-03T13:30:00.877Z,14.07
2017-11-03T13:32:28.374Z,12.70
2017-11-03T13:34:56.212Z,16.37
2017-11-03T13:37:23.689Z,15.03
2017-11-03T13:39:51.442Z,13.80
2017-11-03T13:42:18.957Z,16.20
2017-11-03T13:44:46.429Z,14.60
2017-11-03T13:47:13.938Z,19.77
2017-11-03T13:49:41.412Z,15.07
2017-11-03T13:52:08.884Z,17.83
2017-11-03T13:54:36.397Z,12.30
2017-11-03T13:57:03.909Z,15.07
2017-11-03T13:59:31.409Z,11.50
2017-11-03T14:01:59.641Z,12.83
2017-11-03T14:04:27.125Z,14.17
2017-11-03T14:06:54.621Z,14.10
2017-11-03T14:09:22.109Z,12.07
2017-11-03T14:11:49.873Z,13.13
2017-11-03T14:14:17.377Z,11.80
2017-11-03T14:16:44.848Z,13.57
2017-11-03T14:19:12.310Z,12.70
2017-11-03T14:21:39.827Z,13.03
2017-11-03T14:24:07.619Z,18.70
2017-11-03T14:26:35.855Z,13.20
2017-11-03T14:29:03.337Z,14.13
2017-11-03T14:31:30.842Z,12.50
2017-11-03T14:33:58.319Z,11.40
2017-11-03T14:36:25.835Z,14.63
2017-11-03T14:38:53.341Z,15.47
2017-11-03T14:41:21.219Z,16.40
2017-11-03T14:43:48.712Z,10.67
2017-11-03T14:46:16.170Z,14.33
2017-11-03T14:48:43.694Z,13.20
2017-11-03T14:51:11.172Z,13.50
2017-11-03T14:53:39.434Z,13.77
2017-11-03T14:56:07.687Z,15.97
2017-11-03T14:58:35.467Z,12.50
2017-11-03T15:01:02.961Z,12.43
2017-11-03T15:03:30.435Z,15.87
2017-11-03T15:05:59.884Z,12.73
2017-11-03T15:08:27.395Z,16.03
2017-11-03T15:10:55.325Z,13.20
2017-11-03T15:13:23.756Z,14.27
2017-11-03T15:15:51.234Z,14.23
2017-11-03T15:18:18.724Z,12.20
2017-11-03T15:20:47.106Z,9.47
2017-11-03T15:23:14.869Z,13.50
2017-11-03T15:25:42.344Z,13.53
2017-11-03T15:28:09.875Z,16.90
2017-11-03T15:30:37.425Z,13.70
2017-11-03T15:33:04.913Z,13.23
2017-11-03T15:35:32.483Z,16.20
2017-11-03T15:37:59.983Z,17.63
2017-11-03T15:40:27.457Z,14.97
2017-11-03T15:42:54.947Z,15.80
2017-11-03T15:45:22.424Z,16.03
2017-11-03T15:47:49.921Z,17.17
2017-11-03T15:50:17.408Z,16.90
2017-11-03T15:52:44.911Z,26.03
2017-11-03T15:55:12.404Z,21.53
2017-11-03T15:57:39.898Z,18.07
2017-11-03T16:00:10.060Z,19.63
2017-11-03T16:02:37.642Z,22.50
2017-11-03T16:05:05.121Z,26.70
2017-11-03T16:07:32.688Z,21.27
2017-11-03T16:10:00.219Z,24.80
2017-11-03T16:12:27.753Z,21.27
2017-11-03T16:14:55.235Z,27.53
2017-11-03T16:17:22.705Z,25.47
2017-11-03T16:19:50.311Z,24.93
2017-11-03T16:22:17.853Z,21.30
2017-11-03T16:24:45.704Z,32.57
2017-11-03T16:27:13.210Z,30.37
2017-11-03T16:29:40.886Z,32.73
2017-11-03T16:32:08.383Z,29.37
2017-11-03T16:34:35.866Z,30.90
2017-11-03T16:37:03.411Z,33.97
2017-11-03T16:39:31.017Z,32.70
2017-11-03T16:41:58.497Z,34.63
2017-11-03T16:44:25.996Z,34.63
2017-11-03T16:46:53.480Z,35.27
2017-11-03T16:49:21.284Z,31.53
2017-11-03T16:51:48.799Z,35.17
2017-11-03T16:54:16.681Z,34.60
2017-11-03T16:56:44.183Z,35.50
2017-11-03T16:59:11.655Z,30.07
2017-11-03T17:01:40.224Z,34.90
2017-11-03T17:04:07.771Z,38.50
2017-11-03T17:06:35.265Z,34.10
2017-11-03T17:09:02.769Z,33.43
2017-11-03T17:11:30.276Z,33.57
2017-11-03T17:13:57.758Z,34.00
2017-11-03T17:16:25.296Z,36.73
2017-11-03T17:18:52.777Z,38.77
2017-11-03T17:21:20.283Z,36.63
2017-11-03T17:23:47.747Z,37.47
2017-11-03T17:26:15.276Z,45.10
2017-11-03T17:28:43.016Z,38.10
2017-11-03T17:31:10.511Z,36.17
2017-11-03T17:33:38.031Z,34.90
2017-11-03T17:36:05.567Z,38.37
2017-11-03T17:38:33.643Z,42.53
2017-11-03T17:41:02.956Z,34.67
2017-11-03T17:43:30.514Z,39.83
2017-11-03T17:45:58.113Z,35.63
2017-11-03T17:48:25.903Z,36.00
2017-11-03T17:50:53.803Z,41.70
2017-11-03T17:53:21.440Z,40.33
2017-11-03T17:55:48.979Z,40.03
2017-11-03T17:58:16.968Z,38.50
2017-11-03T18:00:44.529Z,42.17
2017-11-03T18:03:12.099Z,50.87
2017-11-03T18:05:40.018Z,43.30
2017-11-03T18:08:07.709Z,43.50
2017-11-03T18:10:37.341Z,45.50
2017-11-03T18:13:04.908Z,43.67
2017-11-03T18:15:32.459Z,39.90
2017-11-03T18:17:59.961Z,37.93
2017-11-03T18:20:28.261Z,47.30
2017-11-03T18:22:56.503Z,45.00
2017-11-03T18:25:24.013Z,45.53
2017-11-03T18:27:51.553Z,43.60
2017-11-03T18:30:19.346Z,47.57
2017-11-03T18:32:46.887Z,44.90
2017-11-03T18:35:14.356Z,46.23
2017-11-03T18:37:41.890Z,44.47
2017-11-03T18:40:09.581Z,42.33
2017-11-03T18:42:37.085Z,48.50
2017-11-03T18:45:04.577Z,50.50
2017-11-03T18:47:32.046Z,50.60
2017-11-03T18:49:59.766Z,41.70
2017-11-03T18:52:27.250Z,41.83
2017-11-03T18:54:54.789Z,41.57
2017-11-03T18:57:23.143Z,41.80
2017-11-03T18:59:50.628Z,35.80
2017-11-03T19:02:18.168Z,36.83
2017-11-03T19:04:46.429Z,36.43
2017-11-03T19:07:13.907Z,44.13
2017-11-03T19:09:41.406Z,36.20
2017-11-03T19:12:08.913Z,36.70
2017-11-03T19:14:36.422Z,38.30
2017-11-03T19:17:03.914Z,39.43
2017-11-03T19:19:31.729Z,38.80
2017-11-03T19:22:00.387Z,41.93
2017-11-03T19:24:28.075Z,36.77
2017-11-03T19:26:55.620Z,37.70
2017-11-03T19:29:23.921Z,38.63
2017-11-03T19:31:51.435Z,35.90
2017-11-03T19:34:19.242Z,49.20
2017-11-03T19:36:46.749Z,50.70
2017-11-03T19:39:14.421Z,46.80
2017-11-03T19:41:41.911Z,47.20
2017-11-03T19:44:09.493Z,45.30
2017-11-03T19:46:36.952Z,47.97
2017-11-03T19:49:04.437Z,51.50
2017-11-03T19:51:31.988Z,48.10
2017-11-03T19:53:59.504Z,60.37
2017-11-03T19:56:28.085Z,52.03
2017-11-03T19:58:55.574Z,55.40
2017-11-03T20:01:23.065Z,51.60
2017-11-03T20:03:50.584Z,52.87
2017-11-03T20:06:18.126Z,48.53
2017-11-03T20:08:45.936Z,46.83
2017-11-03T20:11:13.518Z,56.27
2017-11-03T20:13:41.057Z,58.47
2017-11-03T20:16:09.535Z,59.43
2017-11-03T20:18:37.093Z,62.97
2017-11-03T20:21:04.585Z,58.87
2017-11-03T20:23:33.031Z,58.47
2017-11-03T20:26:00.542Z,54.30
2017-11-03T20:28:28.083Z,58.03
2017-11-03T20:30:56.352Z,70.33
2017-11-03T20:33:23.976Z,69.70
2017-11-03T20:35:51.511Z,68.90
2017-11-03T20:38:18.979Z,61.17
2017-11-03T20:40:46.468Z,67.07
2017-11-03T20:43:14.178Z,56.87
2017-11-03T20:45:41.681Z,56.93
2017-11-03T20:48:09.194Z,57.43
2017-11-03T20:50:37.449Z,60.73
2017-11-03T20:53:05.757Z,67.37
2017-11-03T20:55:33.379Z,58.80
2017-11-03T20:58:00.970Z,67.07
2017-11-03T21:00:28.516Z,69.27
2017-11-03T21:02:56.121Z,58.27
2017-11-03T21:05:25.230Z,66.90
2017-11-03T21:07:54.484Z,61.67
2017-11-03T21:10:22.102Z,71.20
2017-11-03T21:12:49.602Z,82.30
2017-11-03T21:15:17.912Z,90.83
2017-11-03T21:17:46.199Z,99.00
2017-11-03T21:20:13.817Z,126.33
2017-11-03T21:22:41.447Z,158.73
2017-11-03T21:25:09.750Z,203.37
2017-11-03T21:27:39.042Z,171.23
2017-11-03T21:30:07.336Z,132.27
2017-11-03T21:32:35.216Z,128.37
2017-11-03T21:35:02.767Z,202.17
2017-11-03T21:37:30.399Z,196.17
2017-11-03T21:39:58.721Z,170.83
2017-11-03T21:42:26.339Z,103.70
2017-11-03T21:44:53.825Z,155.93
2017-11-03T21:47:21.427Z,248.20
2017-11-03T21:49:49.021Z,203.37
2017-11-03T21:52:17.424Z,141.17
2017-11-03T21:54:44.990Z,263.10
2017-11-03T21:57:12.646Z,414.67
2017-11-03T21:59:40.344Z,266.23
2017-11-03T22:02:08.046Z,523.20
2017-11-03T22:04:35.597Z,242.87
2017-11-03T22:07:04.376Z,352.13
2017-11-03T22:09:32.670Z,363.03
2017-11-03T22:12:01.021Z,218.90
2017-11-03T22:14:28.684Z,312.63
2017-11-03T22:16:56.296Z,203.77
2017-11-03T22:19:23.847Z,223.60
2017-11-03T22:21:51.576Z,203.60
2017-11-03T22:24:19.557Z,220.60
2017-11-03T22:26:47.183Z,280.17
2017-11-03T22:29:14.923Z,191.13
2017-11-03T22:31:42.590Z,98.63
2017-11-03T22:34:10.253Z,182.73
2017-11-03T22:36:37.917Z,234.13
2017-11-03T22:39:09.118Z,189.17
2017-11-03T22:41:37.025Z,146.80
2017-11-03T22:44:04.640Z,177.63
2017-11-03T22:46:32.335Z,265.67
2017-11-03T22:49:00.005Z,272.20
2017-11-03T22:51:27.501Z,208.73
2017-11-03T22:53:54.988Z,88.90
2017-11-03T22:56:22.526Z,122.30
2017-11-03T22:58:50.090Z,103.47
2017-11-03T23:01:18.111Z,144.67
2017-11-03T23:03:45.604Z,66.33
2017-11-03T23:06:13.092Z,60.27
2017-11-03T23:08:40.616Z,81.67
2017-11-03T23:11:13.422Z,96.10
2017-11-03T23:13:41.661Z,88.20
2017-11-03T23:16:09.321Z,95.93
2017-11-03T23:18:36.818Z,126.77
2017-11-03T23:21:04.529Z,138.57
2017-11-03T23:23:32.013Z,119.00
2017-11-03T23:25:59.496Z,89.17
2017-11-03T23:28:27.831Z,136.37
2017-11-03T23:30:55.289Z,110.87
2017-11-03T23:33:23.232Z,205.90
2017-11-03T23:35:50.712Z,175.00
2017-11-03T23:38:18.215Z,126.53
2017-11-03T23:40:46.540Z,119.80
2017-11-03T23:43:14.018Z,177.23
2017-11-03T23:45:41.535Z,201.63
2017-11-03T23:48:10.303Z,128.70
2017-11-03T23:50:38.277Z,191.57
2017-11-03T23:53:05.943Z,123.17
2017-11-03T23:55:33.435Z,223.57
2017-11-03T23:58:01.010Z,223.43
